sensor_id;sensor_type;location;lat;lon;timestamp;temperature;humidity
3628;DHT22;1830;49.000;12.074;2023-11-19T00:02:20;4.80;99.90
3628;DHT22;1830;49.000;12.074;2023-11-19T00:04:47;4.70;99.90
3628;DHT22;1830;49.000;12.074;2023-11-19T00:07:14;4.70;99.90
3628;DHT22;1830;49.000;12.074;2023-11-19T00:09:42;4.70;99.90
3628;DHT22;1830;49.000;12.074;2023-11-19T00:12:09;4.70;99.90
3628;DHT22;1830;49.000;12.074;2023-11-19T00:14:36;4.70;99.90
3628;DHT22;1830;49.000;12.074;2023-11-19T00:17:03;4.70;99.90
3628;DHT22;1830;49.000;12.074;2023-11-19T00:19:30;4.70;99.90
3628;DHT22;1830;49.000;12.074;2023-11-19T00:21:57;4.60;99.90
3628;DHT22;1830;49.000;12.074;2023-11-19T00:24:28;4.70;99.90
3628;DHT22;1830;49.000;12.074;2023-11-19T00:26:56;4.70;99.90
3628;DHT22;1830;49.000;12.074;2023-11-19T00:29:23;4.60;99.90
3628;DHT22;1830;49.000;12.074;2023-11-19T00:31:50;4.60;99.90
3628;DHT22;1830;49.000;12.074;2023-11-19T00:34:17;4.60;99.90
3628;DHT22;1830;49.000;12.074;2023-11-19T00:36:47;4.60;99.90
3628;DHT22;1830;49.000;12.074;2023-11-19T00:39:14;4.70;99.90
3628;DHT22;1830;49.000;12.074;2023-11-19T00:41:41;4.70;99.90
3628;DHT22;1830;49.000;12.074;2023-11-19T00:44:09;4.70;99.90
3628;DHT22;1830;49.000;12.074;2023-11-19T00:46:36;4.80;99.90
3628;DHT22;1830;49.000;12.074;2023-11-19T00:49:04;4.80;99.90
3628;DHT22;1830;49.000;12.074;2023-11-19T00:51:30;4.80;99.90
3628;DHT22;1830;49.000;12.074;2023-11-19T00:53:58;4.70;99.90
3628;DHT22;1830;49.000;12.074;2023-11-19T00:56:26;4.70;99.90
3628;DHT22;1830;49.000;12.074;2023-11-19T00:58:53;4.70;99.90
3628;DHT22;1830;49.000;12.074;2023-11-19T01:01:22;4.70;99.90
3628;DHT22;1830;49.000;12.074;2023-11-19T01:03:49;4.70;99.90
3628;DHT22;1830;49.000;12.074;2023-11-19T01:06:27;4.70;99.90
3628;DHT22;1830;49.000;12.074;2023-11-19T01:08:54;4.70;99.90
3628;DHT22;1830;49.000;12.074;2023-11-19T01:11:22;4.70;99.90
3628;DHT22;1830;49.000;12.074;2023-11-19T01:13:52;4.70;99.90
3628;DHT22;1830;49.000;12.074;2023-11-19T01:16:19;4.80;99.90
3628;DHT22;1830;49.000;12.074;2023-11-19T01:18:48;4.80;99.90
3628;DHT22;1830;49.000;12.074;2023-11-19T01:21:15;4.80;99.90
3628;DHT22;1830;49.000;12.074;2023-11-19T01:23:42;4.80;99.90
3628;DHT22;1830;49.000;12.074;2023-11-19T01:26:09;4.70;99.90
3628;DHT22;1830;49.000;12.074;2023-11-19T01:28:37;4.70;99.90
3628;DHT22;1830;49.000;12.074;2023-11-19T01:31:10;4.60;99.90
3628;DHT22;1830;49.000;12.074;2023-11-19T01:33:37;4.60;99.90
3628;DHT22;1830;49.000;12.074;2023-11-19T01:36:06;4.60;99.90
3628;DHT22;1830;49.000;12.074;2023-11-19T01:38:33;4.60;99.90
3628;DHT22;1830;49.000;12.074;2023-11-19T01:41:00;4.50;99.90
3628;DHT22;1830;49.000;12.074;2023-11-19T01:43:33;4.50;99.90
3628;DHT22;1830;49.000;12.074;2023-11-19T01:46:00;4.40;99.90
3628;DHT22;1830;49.000;12.074;2023-11-19T01:48:27;4.50;99.90
3628;DHT22;1830;49.000;12.074;2023-11-19T01:50:54;4.50;99.90
3628;DHT22;1830;49.000;12.074;2023-11-19T01:53:22;4.40;99.90
3628;DHT22;1830;49.000;12.074;2023-11-19T01:55:50;4.40;99.90
3628;DHT22;1830;49.000;12.074;2023-11-19T01:58:18;4.40;99.90
3628;DHT22;1830;49.000;12.074;2023-11-19T02:00:45;4.40;99.90
3628;DHT22;1830;49.000;12.074;2023-11-19T02:03:12;4.40;99.90
3628;DHT22;1830;49.000;12.074;2023-11-19T02:05:40;4.40;99.90
3628;DHT22;1830;49.000;12.074;2023-11-19T02:08:09;4.50;99.90
3628;DHT22;1830;49.000;12.074;2023-11-19T02:10:37;4.60;99.90
3628;DHT22;1830;49.000;12.074;2023-11-19T02:13:04;4.50;99.90
3628;DHT22;1830;49.000;12.074;2023-11-19T02:15:32;4.50;99.90
3628;DHT22;1830;49.000;12.074;2023-11-19T02:18:18;4.60;99.90
3628;DHT22;1830;49.000;12.074;2023-11-19T02:20:45;4.70;99.90
3628;DHT22;1830;49.000;12.074;2023-11-19T02:23:13;4.70;99.90
3628;DHT22;1830;49.000;12.074;2023-11-19T02:25:41;4.50;99.90
3628;DHT22;1830;49.000;12.074;2023-11-19T02:28:10;4.40;99.90
3628;DHT22;1830;49.000;12.074;2023-11-19T02:30:38;4.40;99.90
3628;DHT22;1830;49.000;12.074;2023-11-19T02:33:05;4.40;99.90
3628;DHT22;1830;49.000;12.074;2023-11-19T02:35:32;4.40;99.90
3628;DHT22;1830;49.000;12.074;2023-11-19T02:37:59;4.40;99.90
3628;DHT22;1830;49.000;12.074;2023-11-19T02:40:26;4.50;99.90
3628;DHT22;1830;49.000;12.074;2023-11-19T02:42:53;4.50;99.90
3628;DHT22;1830;49.000;12.074;2023-11-19T02:45:26;4.50;99.90
3628;DHT22;1830;49.000;12.074;2023-11-19T02:47:56;4.50;99.90
3628;DHT22;1830;49.000;12.074;2023-11-19T02:50:23;4.50;99.90
3628;DHT22;1830;49.000;12.074;2023-11-19T02:52:53;4.50;99.90
3628;DHT22;1830;49.000;12.074;2023-11-19T02:55:21;4.40;99.90
3628;DHT22;1830;49.000;12.074;2023-11-19T02:57:49;4.40;99.90
3628;DHT22;1830;49.000;12.074;2023-11-19T03:00:19;4.40;99.90
3628;DHT22;1830;49.000;12.074;2023-11-19T03:02:50;4.30;99.90
3628;DHT22;1830;49.000;12.074;2023-11-19T03:05:25;4.30;99.90
3628;DHT22;1830;49.000;12.074;2023-11-19T03:07:55;4.30;99.90
3628;DHT22;1830;49.000;12.074;2023-11-19T03:10:22;4.30;99.90
3628;DHT22;1830;49.000;12.074;2023-11-19T03:12:49;4.30;99.90
3628;DHT22;1830;49.000;12.074;2023-11-19T03:15:16;4.30;99.90
3628;DHT22;1830;49.000;12.074;2023-11-19T03:17:43;4.30;99.90
3628;DHT22;1830;49.000;12.074;2023-11-19T03:20:12;4.20;99.90
3628;DHT22;1830;49.000;12.074;2023-11-19T03:22:41;4.30;99.90
3628;DHT22;1830;49.000;12.074;2023-11-19T03:25:08;4.30;99.90
3628;DHT22;1830;49.000;12.074;2023-11-19T03:27:35;4.30;99.90
3628;DHT22;1830;49.000;12.074;2023-11-19T03:30:02;4.30;99.90
3628;DHT22;1830;49.000;12.074;2023-11-19T03:32:30;4.30;99.90
3628;DHT22;1830;49.000;12.074;2023-11-19T03:34:57;4.30;99.90
3628;DHT22;1830;49.000;12.074;2023-11-19T03:37:26;4.30;99.90
3628;DHT22;1830;49.000;12.074;2023-11-19T03:39:53;4.30;99.90
3628;DHT22;1830;49.000;12.074;2023-11-19T03:42:20;4.20;99.90
3628;DHT22;1830;49.000;12.074;2023-11-19T03:44:46;4.30;99.90
3628;DHT22;1830;49.000;12.074;2023-11-19T03:47:13;4.40;99.90
3628;DHT22;1830;49.000;12.074;2023-11-19T03:49:40;4.50;99.90
3628;DHT22;1830;49.000;12.074;2023-11-19T03:52:07;4.40;99.90
3628;DHT22;1830;49.000;12.074;2023-11-19T03:54:36;4.50;99.90
3628;DHT22;1830;49.000;12.074;2023-11-19T03:57:03;4.50;99.90
3628;DHT22;1830;49.000;12.074;2023-11-19T03:59:30;4.50;99.90
3628;DHT22;1830;49.000;12.074;2023-11-19T04:01:57;4.50;99.90
3628;DHT22;1830;49.000;12.074;2023-11-19T04:04:26;4.50;99.90
3628;DHT22;1830;49.000;12.074;2023-11-19T04:06:53;4.50;99.90
3628;DHT22;1830;49.000;12.074;2023-11-19T04:09:20;4.50;99.90
3628;DHT22;1830;49.000;12.074;2023-11-19T04:11:48;4.50;99.90
3628;DHT22;1830;49.000;12.074;2023-11-19T04:14:15;4.40;99.90
3628;DHT22;1830;49.000;12.074;2023-11-19T04:16:43;4.40;99.90
3628;DHT22;1830;49.000;12.074;2023-11-19T04:19:11;4.40;99.90
3628;DHT22;1830;49.000;12.074;2023-11-19T04:21:40;4.20;99.90
3628;DHT22;1830;49.000;12.074;2023-11-19T04:24:08;4.30;99.90
3628;DHT22;1830;49.000;12.074;2023-11-19T04:26:40;4.30;99.90
3628;DHT22;1830;49.000;12.074;2023-11-19T04:29:09;4.30;99.90
3628;DHT22;1830;49.000;12.074;2023-11-19T04:31:36;4.30;99.90
3628;DHT22;1830;49.000;12.074;2023-11-19T04:34:03;4.50;99.90
3628;DHT22;1830;49.000;12.074;2023-11-19T04:36:30;4.40;99.90
3628;DHT22;1830;49.000;12.074;2023-11-19T04:38:57;4.30;99.90
3628;DHT22;1830;49.000;12.074;2023-11-19T04:41:25;4.30;99.90
3628;DHT22;1830;49.000;12.074;2023-11-19T04:43:53;4.30;99.90
3628;DHT22;1830;49.000;12.074;2023-11-19T04:46:21;4.30;99.90
3628;DHT22;1830;49.000;12.074;2023-11-19T04:48:49;4.30;99.90
3628;DHT22;1830;49.000;12.074;2023-11-19T04:51:16;4.20;99.90
3628;DHT22;1830;49.000;12.074;2023-11-19T04:53:42;4.20;99.90
3628;DHT22;1830;49.000;12.074;2023-11-19T04:56:10;4.20;99.90
3628;DHT22;1830;49.000;12.074;2023-11-19T04:58:37;4.20;99.90
3628;DHT22;1830;49.000;12.074;2023-11-19T05:01:04;4.20;99.90
3628;DHT22;1830;49.000;12.074;2023-11-19T05:03:32;4.10;99.90
3628;DHT22;1830;49.000;12.074;2023-11-19T05:05:59;4.10;99.90
3628;DHT22;1830;49.000;12.074;2023-11-19T05:08:26;4.00;99.90
3628;DHT22;1830;49.000;12.074;2023-11-19T05:10:53;4.10;99.90
3628;DHT22;1830;49.000;12.074;2023-11-19T05:13:20;4.20;99.90
3628;DHT22;1830;49.000;12.074;2023-11-19T05:15:47;4.20;99.90
3628;DHT22;1830;49.000;12.074;2023-11-19T05:18:14;4.30;99.90
3628;DHT22;1830;49.000;12.074;2023-11-19T05:20:42;4.20;99.90
3628;DHT22;1830;49.000;12.074;2023-11-19T05:23:09;4.10;99.90
3628;DHT22;1830;49.000;12.074;2023-11-19T05:25:36;4.20;99.90
3628;DHT22;1830;49.000;12.074;2023-11-19T05:28:03;4.20;99.90
3628;DHT22;1830;49.000;12.074;2023-11-19T05:30:30;4.30;99.90
3628;DHT22;1830;49.000;12.074;2023-11-19T05:32:57;4.20;99.90
3628;DHT22;1830;49.000;12.074;2023-11-19T05:35:24;4.20;99.90
3628;DHT22;1830;49.000;12.074;2023-11-19T05:37:52;4.20;99.90
3628;DHT22;1830;49.000;12.074;2023-11-19T05:40:19;4.20;99.90
3628;DHT22;1830;49.000;12.074;2023-11-19T05:42:46;4.30;99.90
3628;DHT22;1830;49.000;12.074;2023-11-19T05:45:13;4.50;99.90
3628;DHT22;1830;49.000;12.074;2023-11-19T05:47:40;4.50;99.90
3628;DHT22;1830;49.000;12.074;2023-11-19T05:50:08;4.50;99.90
3628;DHT22;1830;49.000;12.074;2023-11-19T05:52:35;4.50;99.90
3628;DHT22;1830;49.000;12.074;2023-11-19T05:55:04;4.50;99.90
3628;DHT22;1830;49.000;12.074;2023-11-19T05:57:35;4.50;99.90
3628;DHT22;1830;49.000;12.074;2023-11-19T06:00:02;4.40;99.90
3628;DHT22;1830;49.000;12.074;2023-11-19T06:02:32;4.40;99.90
3628;DHT22;1830;49.000;12.074;2023-11-19T06:04:59;4.40;99.90
3628;DHT22;1830;49.000;12.074;2023-11-19T06:07:26;4.40;99.90
3628;DHT22;1830;49.000;12.074;2023-11-19T06:09:52;4.30;99.90
3628;DHT22;1830;49.000;12.074;2023-11-19T06:12:20;4.20;99.90
3628;DHT22;1830;49.000;12.074;2023-11-19T06:14:47;4.20;99.90
3628;DHT22;1830;49.000;12.074;2023-11-19T06:17:14;4.20;99.90
3628;DHT22;1830;49.000;12.074;2023-11-19T06:19:41;4.20;99.90
3628;DHT22;1830;49.000;12.074;2023-11-19T06:22:08;4.20;99.90
3628;DHT22;1830;49.000;12.074;2023-11-19T06:24:34;4.30;99.90
3628;DHT22;1830;49.000;12.074;2023-11-19T06:27:01;4.20;99.90
3628;DHT22;1830;49.000;12.074;2023-11-19T06:29:29;4.10;99.90
3628;DHT22;1830;49.000;12.074;2023-11-19T06:31:56;4.10;99.90
3628;DHT22;1830;49.000;12.074;2023-11-19T06:34:23;4.20;99.90
3628;DHT22;1830;49.000;12.074;2023-11-19T06:36:50;4.10;99.90
3628;DHT22;1830;49.000;12.074;2023-11-19T06:39:16;4.10;99.90
3628;DHT22;1830;49.000;12.074;2023-11-19T06:41:47;4.20;99.90
3628;DHT22;1830;49.000;12.074;2023-11-19T06:44:14;4.20;99.90
3628;DHT22;1830;49.000;12.074;2023-11-19T06:46:42;4.20;99.90
3628;DHT22;1830;49.000;12.074;2023-11-19T06:49:09;4.20;99.90
3628;DHT22;1830;49.000;12.074;2023-11-19T06:51:36;4.20;99.90
3628;DHT22;1830;49.000;12.074;2023-11-19T06:54:07;4.20;99.90
3628;DHT22;1830;49.000;12.074;2023-11-19T06:56:33;4.20;99.90
3628;DHT22;1830;49.000;12.074;2023-11-19T06:59:00;4.00;99.90
3628;DHT22;1830;49.000;12.074;2023-11-19T07:01:27;4.00;99.90
3628;DHT22;1830;49.000;12.074;2023-11-19T07:03:55;4.00;99.90
3628;DHT22;1830;49.000;12.074;2023-11-19T07:06:23;4.20;99.90
3628;DHT22;1830;49.000;12.074;2023-11-19T07:08:52;4.30;99.90
3628;DHT22;1830;49.000;12.074;2023-11-19T07:11:18;4.20;99.90
3628;DHT22;1830;49.000;12.074;2023-11-19T07:13:45;4.30;99.90
3628;DHT22;1830;49.000;12.074;2023-11-19T07:16:14;4.20;99.90
3628;DHT22;1830;49.000;12.074;2023-11-19T07:18:41;4.20;99.90
3628;DHT22;1830;49.000;12.074;2023-11-19T07:21:10;4.20;99.90
3628;DHT22;1830;49.000;12.074;2023-11-19T07:23:37;4.30;99.90
3628;DHT22;1830;49.000;12.074;2023-11-19T07:26:05;4.30;99.90
3628;DHT22;1830;49.000;12.074;2023-11-19T07:28:33;4.20;99.90
3628;DHT22;1830;49.000;12.074;2023-11-19T07:31:00;4.30;99.90
3628;DHT22;1830;49.000;12.074;2023-11-19T07:33:27;4.30;99.90
3628;DHT22;1830;49.000;12.074;2023-11-19T07:35:55;4.20;99.90
3628;DHT22;1830;49.000;12.074;2023-11-19T07:38:23;4.20;99.90
3628;DHT22;1830;49.000;12.074;2023-11-19T07:40:50;4.30;99.90
3628;DHT22;1830;49.000;12.074;2023-11-19T07:43:16;4.20;99.90
3628;DHT22;1830;49.000;12.074;2023-11-19T07:45:43;4.20;99.90
3628;DHT22;1830;49.000;12.074;2023-11-19T07:48:11;4.30;99.90
3628;DHT22;1830;49.000;12.074;2023-11-19T07:50:38;4.30;99.90
3628;DHT22;1830;49.000;12.074;2023-11-19T07:53:06;4.40;99.90
3628;DHT22;1830;49.000;12.074;2023-11-19T07:55:34;4.30;99.90
3628;DHT22;1830;49.000;12.074;2023-11-19T07:58:01;4.40;99.90
3628;DHT22;1830;49.000;12.074;2023-11-19T08:00:28;4.40;99.90
3628;DHT22;1830;49.000;12.074;2023-11-19T08:02:54;4.20;99.90
3628;DHT22;1830;49.000;12.074;2023-11-19T08:05:21;4.20;99.90
3628;DHT22;1830;49.000;12.074;2023-11-19T08:07:50;4.30;99.90
3628;DHT22;1830;49.000;12.074;2023-11-19T08:10:17;4.30;99.90
3628;DHT22;1830;49.000;12.074;2023-11-19T08:12:45;4.20;99.90
3628;DHT22;1830;49.000;12.074;2023-11-19T08:15:12;4.40;99.90
3628;DHT22;1830;49.000;12.074;2023-11-19T08:17:39;4.40;99.90
3628;DHT22;1830;49.000;12.074;2023-11-19T08:20:10;4.40;99.90
3628;DHT22;1830;49.000;12.074;2023-11-19T08:22:40;4.40;99.90
3628;DHT22;1830;49.000;12.074;2023-11-19T08:25:07;4.50;99.90
3628;DHT22;1830;49.000;12.074;2023-11-19T08:27:34;4.40;99.90
3628;DHT22;1830;49.000;12.074;2023-11-19T08:30:06;4.40;99.90
3628;DHT22;1830;49.000;12.074;2023-11-19T08:32:36;4.30;99.90
3628;DHT22;1830;49.000;12.074;2023-11-19T08:35:03;4.30;99.90
3628;DHT22;1830;49.000;12.074;2023-11-19T08:37:31;4.40;99.90
3628;DHT22;1830;49.000;12.074;2023-11-19T08:39:57;4.30;99.90
3628;DHT22;1830;49.000;12.074;2023-11-19T08:42:24;4.30;99.90
3628;DHT22;1830;49.000;12.074;2023-11-19T08:44:51;4.30;99.90
3628;DHT22;1830;49.000;12.074;2023-11-19T08:47:31;4.30;99.90
3628;DHT22;1830;49.000;12.074;2023-11-19T08:52:38;4.20;99.90
3628;DHT22;1830;49.000;12.074;2023-11-19T08:53:41;4.40;99.90
3628;DHT22;1830;49.000;12.074;2023-11-19T08:56:08;4.40;99.90
3628;DHT22;1830;49.000;12.074;2023-11-19T08:58:34;4.50;99.90
3628;DHT22;1830;49.000;12.074;2023-11-19T09:01:01;4.50;99.90
3628;DHT22;1830;49.000;12.074;2023-11-19T09:03:32;4.50;99.90
3628;DHT22;1830;49.000;12.074;2023-11-19T09:06:00;4.70;99.90
3628;DHT22;1830;49.000;12.074;2023-11-19T09:08:41;4.70;99.90
3628;DHT22;1830;49.000;12.074;2023-11-19T09:12:01;4.80;99.90
3628;DHT22;1830;49.000;12.074;2023-11-19T09:14:23;4.70;99.90
3628;DHT22;1830;49.000;12.074;2023-11-19T09:16:51;4.90;99.90
3628;DHT22;1830;49.000;12.074;2023-11-19T09:19:19;4.90;99.90
3628;DHT22;1830;49.000;12.074;2023-11-19T09:21:46;4.90;99.90
3628;DHT22;1830;49.000;12.074;2023-11-19T09:25:58;4.90;99.90
3628;DHT22;1830;49.000;12.074;2023-11-19T09:27:17;4.90;99.90
3628;DHT22;1830;49.000;12.074;2023-11-19T09:29:43;4.90;99.90
3628;DHT22;1830;49.000;12.074;2023-11-19T09:32:12;4.90;99.90
3628;DHT22;1830;49.000;12.074;2023-11-19T09:34:40;4.90;99.90
3628;DHT22;1830;49.000;12.074;2023-11-19T09:37:07;4.90;99.90
3628;DHT22;1830;49.000;12.074;2023-11-19T09:39:34;4.90;99.90
3628;DHT22;1830;49.000;12.074;2023-11-19T09:42:01;5.00;99.90
3628;DHT22;1830;49.000;12.074;2023-11-19T09:44:27;5.10;99.90
3628;DHT22;1830;49.000;12.074;2023-11-19T09:46:55;5.20;99.90
3628;DHT22;1830;49.000;12.074;2023-11-19T09:49:26;5.30;99.90
3628;DHT22;1830;49.000;12.074;2023-11-19T09:51:55;5.40;99.90
3628;DHT22;1830;49.000;12.074;2023-11-19T09:54:21;5.50;99.90
3628;DHT22;1830;49.000;12.074;2023-11-19T09:56:48;5.70;99.90
3628;DHT22;1830;49.000;12.074;2023-11-19T09:59:16;5.80;99.90
3628;DHT22;1830;49.000;12.074;2023-11-19T10:01:43;6.00;99.90
3628;DHT22;1830;49.000;12.074;2023-11-19T10:04:15;6.10;99.90
3628;DHT22;1830;49.000;12.074;2023-11-19T10:06:42;6.30;99.90
3628;DHT22;1830;49.000;12.074;2023-11-19T10:09:12;6.50;99.90
3628;DHT22;1830;49.000;12.074;2023-11-19T10:11:38;6.70;99.90
3628;DHT22;1830;49.000;12.074;2023-11-19T10:14:05;6.90;99.90
3628;DHT22;1830;49.000;12.074;2023-11-19T10:16:34;7.20;99.90
3628;DHT22;1830;49.000;12.074;2023-11-19T10:19:01;7.10;99.90
3628;DHT22;1830;49.000;12.074;2023-11-19T10:21:29;7.00;99.90
3628;DHT22;1830;49.000;12.074;2023-11-19T10:23:58;6.90;99.90
3628;DHT22;1830;49.000;12.074;2023-11-19T10:26:27;6.80;99.90
3628;DHT22;1830;49.000;12.074;2023-11-19T10:28:55;6.90;99.90
3628;DHT22;1830;49.000;12.074;2023-11-19T10:31:22;6.80;99.90
3628;DHT22;1830;49.000;12.074;2023-11-19T10:51:21;7.80;99.90
3628;DHT22;1830;49.000;12.074;2023-11-19T10:53:49;8.00;99.90
3628;DHT22;1830;49.000;12.074;2023-11-19T10:56:17;8.30;99.90
3628;DHT22;1830;49.000;12.074;2023-11-19T10:58:48;8.30;99.90
3628;DHT22;1830;49.000;12.074;2023-11-19T11:01:20;8.30;99.90
3628;DHT22;1830;49.000;12.074;2023-11-19T11:03:47;8.50;99.90
3628;DHT22;1830;49.000;12.074;2023-11-19T11:06:17;8.50;99.90
3628;DHT22;1830;49.000;12.074;2023-11-19T11:08:46;8.70;99.90
3628;DHT22;1830;49.000;12.074;2023-11-19T11:11:15;8.80;99.90
3628;DHT22;1830;49.000;12.074;2023-11-19T11:13:43;9.00;99.90
3628;DHT22;1830;49.000;12.074;2023-11-19T11:16:10;9.00;99.90
3628;DHT22;1830;49.000;12.074;2023-11-19T11:18:37;9.00;99.90
3628;DHT22;1830;49.000;12.074;2023-11-19T11:21:07;9.00;99.90
3628;DHT22;1830;49.000;12.074;2023-11-19T11:26:57;9.30;99.90
3628;DHT22;1830;49.000;12.074;2023-11-19T11:29:35;9.50;99.90
3628;DHT22;1830;49.000;12.074;2023-11-19T11:32:11;9.50;99.90
3628;DHT22;1830;49.000;12.074;2023-11-19T11:35:07;9.50;99.90
3628;DHT22;1830;49.000;12.074;2023-11-19T11:37:39;9.70;99.90
3628;DHT22;1830;49.000;12.074;2023-11-19T11:40:14;9.80;99.90
3628;DHT22;1830;49.000;12.074;2023-11-19T11:42:42;9.80;99.90
3628;DHT22;1830;49.000;12.074;2023-11-19T11:45:10;9.90;99.90
3628;DHT22;1830;49.000;12.074;2023-11-19T11:48:08;9.90;99.90
3628;DHT22;1830;49.000;12.074;2023-11-19T11:50:36;10.00;99.90
3628;DHT22;1830;49.000;12.074;2023-11-19T11:53:15;10.00;99.90
3628;DHT22;1830;49.000;12.074;2023-11-19T11:55:53;10.10;99.90
3628;DHT22;1830;49.000;12.074;2023-11-19T11:58:26;10.20;99.90
3628;DHT22;1830;49.000;12.074;2023-11-19T12:00:53;10.10;99.90
3628;DHT22;1830;49.000;12.074;2023-11-19T12:03:21;10.20;99.90
3628;DHT22;1830;49.000;12.074;2023-11-19T12:05:48;10.20;99.90
3628;DHT22;1830;49.000;12.074;2023-11-19T12:08:18;10.30;99.90
3628;DHT22;1830;49.000;12.074;2023-11-19T12:10:47;10.40;99.90
3628;DHT22;1830;49.000;12.074;2023-11-19T12:13:15;10.40;99.90
3628;DHT22;1830;49.000;12.074;2023-11-19T12:16:09;10.40;99.90
3628;DHT22;1830;49.000;12.074;2023-11-19T12:18:38;10.40;99.90
3628;DHT22;1830;49.000;12.074;2023-11-19T12:21:05;10.50;99.90
3628;DHT22;1830;49.000;12.074;2023-11-19T12:23:35;10.50;99.90
3628;DHT22;1830;49.000;12.074;2023-11-19T12:26:01;10.60;99.90
3628;DHT22;1830;49.000;12.074;2023-11-19T12:28:29;10.70;99.90
3628;DHT22;1830;49.000;12.074;2023-11-19T12:31:09;10.70;99.90
3628;DHT22;1830;49.000;12.074;2023-11-19T12:33:36;10.70;99.90
3628;DHT22;1830;49.000;12.074;2023-11-19T12:36:04;10.60;99.90
3628;DHT22;1830;49.000;12.074;2023-11-19T12:38:31;10.60;99.90
3628;DHT22;1830;49.000;12.074;2023-11-19T12:41:05;10.70;99.90
3628;DHT22;1830;49.000;12.074;2023-11-19T12:43:32;10.80;99.90
3628;DHT22;1830;49.000;12.074;2023-11-19T12:45:59;10.90;99.90
3628;DHT22;1830;49.000;12.074;2023-11-19T12:48:27;11.00;99.90
3628;DHT22;1830;49.000;12.074;2023-11-19T12:50:55;11.00;99.90
3628;DHT22;1830;49.000;12.074;2023-11-19T12:53:23;10.90;99.90
3628;DHT22;1830;49.000;12.074;2023-11-19T12:55:51;11.00;99.90
3628;DHT22;1830;49.000;12.074;2023-11-19T12:58:30;11.10;99.90
3628;DHT22;1830;49.000;12.074;2023-11-19T13:01:01;11.10;99.90
3628;DHT22;1830;49.000;12.074;2023-11-19T13:03:32;11.10;99.90
3628;DHT22;1830;49.000;12.074;2023-11-19T13:06:03;11.10;99.90
3628;DHT22;1830;49.000;12.074;2023-11-19T13:08:36;11.30;99.90
3628;DHT22;1830;49.000;12.074;2023-11-19T13:11:04;11.20;99.90
3628;DHT22;1830;49.000;12.074;2023-11-19T13:13:33;11.20;99.90
3628;DHT22;1830;49.000;12.074;2023-11-19T13:16:04;11.20;99.90
3628;DHT22;1830;49.000;12.074;2023-11-19T13:18:33;11.20;99.90
3628;DHT22;1830;49.000;12.074;2023-11-19T13:21:00;11.30;99.90
3628;DHT22;1830;49.000;12.074;2023-11-19T13:23:27;11.40;99.90
3628;DHT22;1830;49.000;12.074;2023-11-19T13:25:53;11.40;99.90
3628;DHT22;1830;49.000;12.074;2023-11-19T13:28:20;11.40;99.90
3628;DHT22;1830;49.000;12.074;2023-11-19T13:30:48;11.40;99.90
3628;DHT22;1830;49.000;12.074;2023-11-19T13:33:15;11.50;99.90
3628;DHT22;1830;49.000;12.074;2023-11-19T13:35:43;11.50;99.90
3628;DHT22;1830;49.000;12.074;2023-11-19T13:38:09;11.50;99.90
3628;DHT22;1830;49.000;12.074;2023-11-19T13:40:36;11.60;99.90
3628;DHT22;1830;49.000;12.074;2023-11-19T13:43:04;11.60;99.90
3628;DHT22;1830;49.000;12.074;2023-11-19T13:45:32;11.60;99.90
3628;DHT22;1830;49.000;12.074;2023-11-19T13:47:58;11.60;99.90
3628;DHT22;1830;49.000;12.074;2023-11-19T13:50:25;11.60;99.90
3628;DHT22;1830;49.000;12.074;2023-11-19T13:52:55;11.70;99.90
3628;DHT22;1830;49.000;12.074;2023-11-19T13:55:22;11.60;99.90
3628;DHT22;1830;49.000;12.074;2023-11-19T13:57:49;11.60;99.90
3628;DHT22;1830;49.000;12.074;2023-11-19T14:00:16;11.70;99.90
3628;DHT22;1830;49.000;12.074;2023-11-19T14:02:45;11.60;99.90
3628;DHT22;1830;49.000;12.074;2023-11-19T14:05:13;11.60;99.90
3628;DHT22;1830;49.000;12.074;2023-11-19T14:07:41;11.60;99.90
3628;DHT22;1830;49.000;12.074;2023-11-19T14:10:10;11.60;99.90
3628;DHT22;1830;49.000;12.074;2023-11-19T14:12:37;11.60;99.90
3628;DHT22;1830;49.000;12.074;2023-11-19T14:15:05;11.60;99.90
3628;DHT22;1830;49.000;12.074;2023-11-19T14:17:32;11.70;99.90
3628;DHT22;1830;49.000;12.074;2023-11-19T14:19:59;11.60;99.90
3628;DHT22;1830;49.000;12.074;2023-11-19T14:22:26;11.60;99.90
3628;DHT22;1830;49.000;12.074;2023-11-19T14:24:53;11.50;99.90
3628;DHT22;1830;49.000;12.074;2023-11-19T14:27:22;11.50;99.90
3628;DHT22;1830;49.000;12.074;2023-11-19T14:29:48;11.40;99.90
3628;DHT22;1830;49.000;12.074;2023-11-19T14:32:16;11.40;99.90
3628;DHT22;1830;49.000;12.074;2023-11-19T14:34:43;11.40;99.90
3628;DHT22;1830;49.000;12.074;2023-11-19T14:37:10;11.30;99.90
3628;DHT22;1830;49.000;12.074;2023-11-19T14:39:37;11.30;99.90
3628;DHT22;1830;49.000;12.074;2023-11-19T14:42:04;11.20;99.90
3628;DHT22;1830;49.000;12.074;2023-11-19T14:44:32;11.10;99.90
3628;DHT22;1830;49.000;12.074;2023-11-19T14:46:59;11.10;99.90
3628;DHT22;1830;49.000;12.074;2023-11-19T14:49:27;11.00;99.90
3628;DHT22;1830;49.000;12.074;2023-11-19T14:51:54;11.00;99.90
3628;DHT22;1830;49.000;12.074;2023-11-19T14:54:21;11.00;99.90
3628;DHT22;1830;49.000;12.074;2023-11-19T14:56:47;11.00;99.90
3628;DHT22;1830;49.000;12.074;2023-11-19T14:59:14;10.90;99.90
3628;DHT22;1830;49.000;12.074;2023-11-19T15:01:45;10.90;99.90
3628;DHT22;1830;49.000;12.074;2023-11-19T15:04:11;11.10;99.90
3628;DHT22;1830;49.000;12.074;2023-11-19T15:06:38;11.10;99.90
3628;DHT22;1830;49.000;12.074;2023-11-19T15:09:05;11.10;99.90
3628;DHT22;1830;49.000;12.074;2023-11-19T15:11:33;11.10;99.90
3628;DHT22;1830;49.000;12.074;2023-11-19T15:14:00;11.10;99.90
3628;DHT22;1830;49.000;12.074;2023-11-19T15:16:28;11.10;99.90
3628;DHT22;1830;49.000;12.074;2023-11-19T15:22:20;11.00;99.90
3628;DHT22;1830;49.000;12.074;2023-11-19T15:24:48;10.90;99.90
3628;DHT22;1830;49.000;12.074;2023-11-19T15:27:15;10.90;99.90
3628;DHT22;1830;49.000;12.074;2023-11-19T15:29:43;10.80;99.90
3628;DHT22;1830;49.000;12.074;2023-11-19T15:32:10;10.70;99.90
3628;DHT22;1830;49.000;12.074;2023-11-19T15:34:37;10.70;99.90
3628;DHT22;1830;49.000;12.074;2023-11-19T15:37:06;10.60;99.90
3628;DHT22;1830;49.000;12.074;2023-11-19T15:39:34;10.60;99.90
3628;DHT22;1830;49.000;12.074;2023-11-19T15:42:02;10.60;99.90
3628;DHT22;1830;49.000;12.074;2023-11-19T15:44:29;10.60;99.90
3628;DHT22;1830;49.000;12.074;2023-11-19T15:46:58;10.60;99.90
3628;DHT22;1830;49.000;12.074;2023-11-19T15:49:32;10.60;99.90
3628;DHT22;1830;49.000;12.074;2023-11-19T15:51:59;10.50;99.90
3628;DHT22;1830;49.000;12.074;2023-11-19T15:54:27;10.50;99.90
3628;DHT22;1830;49.000;12.074;2023-11-19T15:57:19;10.50;99.90
3628;DHT22;1830;49.000;12.074;2023-11-19T15:59:46;10.50;99.90
3628;DHT22;1830;49.000;12.074;2023-11-19T16:02:14;10.50;99.90
3628;DHT22;1830;49.000;12.074;2023-11-19T16:04:41;10.40;99.90
3628;DHT22;1830;49.000;12.074;2023-11-19T16:07:12;10.30;99.90
3628;DHT22;1830;49.000;12.074;2023-11-19T16:09:39;10.20;99.90
3628;DHT22;1830;49.000;12.074;2023-11-19T16:12:07;10.30;99.90
3628;DHT22;1830;49.000;12.074;2023-11-19T16:14:36;10.20;99.90
3628;DHT22;1830;49.000;12.074;2023-11-19T16:17:03;10.10;99.90
3628;DHT22;1830;49.000;12.074;2023-11-19T16:19:31;10.10;99.90
3628;DHT22;1830;49.000;12.074;2023-11-19T16:21:59;10.10;99.90
3628;DHT22;1830;49.000;12.074;2023-11-19T16:27:57;10.10;99.90
3628;DHT22;1830;49.000;12.074;2023-11-19T16:30:26;10.00;99.90
3628;DHT22;1830;49.000;12.074;2023-11-19T16:32:53;10.00;99.90
3628;DHT22;1830;49.000;12.074;2023-11-19T16:35:24;10.00;99.90